Time;durP1;ratioP1;P1;durP2;ratioP2;P2;SDS_P1;SDS_P2;PMS_P1;PMS_P2;Temp;Humidity;BMP_temperature;BMP_pressure;BME280_temperature;BME280_humidity;BME280_pressure;Samples;Min_cycle;Max_cycle;Signal;HPM_P1;HPM_P2
2021/05/02 00:00:47;;;;;;;;;32.25;26.50;;;;;;;;5041119;28;11487;-80
2021/05/02 00:03:15;;;;;;;;;31.00;30.25;;;;;;;;5043218;28;11559;-79
2021/05/02 00:05:42;;;;;;;;;30.00;25.00;;;;;;;;5026045;28;11697;-82
2021/05/02 00:08:09;;;;;;;;;27.75;26.25;;;;;;;;5043077;28;11695;-80
2021/05/02 00:10:36;;;;;;;;;25.25;25.25;;;;;;;;5024369;28;11564;-82
2021/05/02 00:13:06;;;;;;;;;18.25;16.00;;;;;;;;5044644;28;11572;-77
2021/05/02 00:15:34;;;;;;;;;30.75;27.75;;;;;;;;5041465;28;11638;-78
2021/05/02 00:18:02;;;;;;;;;23.25;21.75;;;;;;;;5041161;28;11634;-79
2021/05/02 00:20:29;;;;;;;;;29.75;28.25;;;;;;;;5042754;28;11559;-78
2021/05/02 00:22:59;;;;;;;;;25.50;24.25;;;;;;;;5045497;28;11559;-77
2021/05/02 00:25:30;;;;;;;;;19.00;18.00;;;;;;;;5024379;28;11695;-79
2021/05/02 00:27:57;;;;;;;;;32.25;28.25;;;;;;;;5057347;28;11677;-79
2021/05/02 00:30:25;;;;;;;;;26.25;26.25;;;;;;;;5045175;28;11598;-79
2021/05/02 00:32:54;;;;;;;;;25.75;21.50;;;;;;;;5042780;28;11670;-79
2021/05/02 00:35:23;;;;;;;;;28.75;24.25;;;;;;;;5043292;28;11560;-80
2021/05/02 00:37:51;;;;;;;;;24.00;21.25;;;;;;;;5048256;28;11546;-80
2021/05/02 00:40:20;;;;;;;;;25.50;25.50;;;;;;;;5028619;28;11569;-80
2021/05/02 00:42:49;;;;;;;;;28.25;26.25;;;;;;;;5039265;28;11703;-81
2021/05/02 00:45:25;;;;;;;;;19.50;19.50;;;;;;;;5042525;28;11622;-80
2021/05/02 00:47:59;;;;;;;;;28.50;26.00;;;;;;;;5024348;28;11607;-80
2021/05/02 00:50:29;;;;;;;;;26.75;22.75;;;;;;;;5041606;28;11581;-79
2021/05/02 00:53:16;;;;;;;;;20.00;19.25;;;;;;;;5040511;28;11552;-79
2021/05/02 00:55:47;;;;;;;;;30.50;24.50;;;;;;;;5042505;28;11560;-79
2021/05/02 00:58:26;;;;;;;;;27.25;25.00;;;;;;;;5051898;28;11580;-79
2021/05/02 01:00:55;;;;;;;;;28.00;26.25;;;;;;;;5033946;28;11504;-81
2021/05/02 01:03:25;;;;;;;;;21.00;21.00;;;;;;;;5042396;28;11597;-79
2021/05/02 01:05:53;;;;;;;;;21.25;20.00;;;;;;;;5044440;28;12628;-79
2021/05/02 01:08:22;;;;;;;;;23.75;23.50;;;;;;;;5043021;28;11578;-79
2021/05/02 01:10:50;;;;;;;;;21.50;20.25;;;;;;;;5041873;28;11628;-80
2021/05/02 01:13:19;;;;;;;;;24.75;20.25;;;;;;;;5024117;28;11555;-79
2021/05/02 01:15:50;;;;;;;;;28.00;25.50;;;;;;;;5053485;28;11552;-80
2021/05/02 01:18:19;;;;;;;;;21.00;19.75;;;;;;;;5028270;28;11523;-78
2021/05/02 01:20:47;;;;;;;;;18.25;18.25;;;;;;;;5031040;28;11555;-79
2021/05/02 01:23:25;;;;;;;;;21.25;21.25;;;;;;;;5025337;28;11525;-78
2021/05/02 01:25:54;;;;;;;;;21.25;19.50;;;;;;;;5041134;28;12419;-79
2021/05/02 01:28:22;;;;;;;;;24.50;21.75;;;;;;;;5042637;28;11558;-79
2021/05/02 01:30:50;;;;;;;;;22.00;22.00;;;;;;;;5041103;28;11675;-80
2021/05/02 01:33:18;;;;;;;;;27.00;24.75;;;;;;;;5046937;28;11528;-79
2021/05/02 01:35:45;;;;;;;;;27.75;24.00;;;;;;;;5047955;28;11656;-79
2021/05/02 01:38:13;;;;;;;;;27.50;24.00;;;;;;;;5042625;28;12328;-80
2021/05/02 01:40:41;;;;;;;;;31.50;29.25;;;;;;;;5043759;28;11532;-78
2021/05/02 01:43:08;;;;;;;;;27.25;24.00;;;;;;;;5039325;28;11567;-78
2021/05/02 01:45:36;;;;;;;;;22.50;20.50;;;;;;;;5046824;28;11530;-77
2021/05/02 01:48:05;;;;;;;;;29.25;23.00;;;;;;;;5040805;28;11606;-80
2021/05/02 01:50:35;;;;;;;;;24.00;21.50;;;;;;;;5042378;28;11688;-79
2021/05/02 01:53:02;;;;;;;;;23.00;22.00;;;;;;;;5026502;28;11552;-80
2021/05/02 01:55:29;;;;;;;;;23.75;23.75;;;;;;;;5024450;28;11563;-79
2021/05/02 01:57:57;;;;;;;;;26.25;26.25;;;;;;;;5041499;28;11553;-79
2021/05/02 02:00:40;;;;;;;;;26.25;22.25;;;;;;;;5041377;28;11500;-79
2021/05/02 02:03:08;;;;;;;;;26.00;26.00;;;;;;;;5042414;28;11577;-80
2021/05/02 02:05:36;;;;;;;;;14.50;10.75;;;;;;;;5026248;28;11774;-79
2021/05/02 02:08:05;;;;;;;;;21.00;21.00;;;;;;;;5047039;28;11693;-79
2021/05/02 02:10:34;;;;;;;;;26.00;23.25;;;;;;;;5041945;28;11565;-77
2021/05/02 02:13:02;;;;;;;;;32.25;28.50;;;;;;;;5040902;28;11623;-78
2021/05/02 02:15:30;;;;;;;;;24.50;18.25;;;;;;;;5024020;28;11572;-78
2021/05/02 02:17:57;;;;;;;;;26.67;26.67;;;;;;;;5041735;28;11535;-79
2021/05/02 02:20:25;;;;;;;;;24.75;23.50;;;;;;;;5044564;28;11680;-79
2021/05/02 02:22:56;;;;;;;;;30.75;27.00;;;;;;;;5050852;28;11598;-78
2021/05/02 02:25:27;;;;;;;;;30.67;25.67;;;;;;;;5057248;28;12321;-79
2021/05/02 02:27:56;;;;;;;;;27.67;26.67;;;;;;;;5042593;28;11618;-79
2021/05/02 02:30:26;;;;;;;;;30.33;28.00;;;;;;;;5040999;28;11614;-79
2021/05/02 02:32:53;;;;;;;;;29.67;22.67;;;;;;;;5042256;28;11553;-80
2021/05/02 02:35:22;;;;;;;;;30.67;28.67;;;;;;;;5039963;28;11681;-79
2021/05/02 02:37:54;;;;;;;;;28.33;26.00;;;;;;;;5041204;28;11574;-79
2021/05/02 02:40:21;;;;;;;;;30.67;23.67;;;;;;;;5042945;28;11576;-78
2021/05/02 02:42:49;;;;;;;;;25.67;23.33;;;;;;;;5041585;28;11542;-80
2021/05/02 02:45:17;;;;;;;;;36.00;30.33;;;;;;;;5022868;28;11544;-79
2021/05/02 02:47:47;;;;;;;;;25.33;25.33;;;;;;;;5047464;28;12344;-80
2021/05/02 02:50:16;;;;;;;;;28.00;25.00;;;;;;;;5054915;28;11654;-80
2021/05/02 02:52:46;;;;;;;;;29.67;28.67;;;;;;;;5040683;28;11588;-79
2021/05/02 02:55:16;;;;;;;;;18.00;18.00;;;;;;;;5041071;28;8967;-76
2021/05/02 02:57:46;;;;;;;;;36.67;27.67;;;;;;;;5045718;28;11591;-76
2021/05/02 03:00:14;;;;;;;;;21.00;18.67;;;;;;;;5045089;28;8912;-77
2021/05/02 03:02:49;;;;;;;;;46.67;38.00;;;;;;;;5024614;28;8882;-81
2021/05/02 03:05:19;;;;;;;;;27.67;27.67;;;;;;;;5043752;28;8864;-80
2021/05/02 03:07:48;;;;;;;;;28.00;22.67;;;;;;;;5042949;28;8870;-79
2021/05/02 03:10:16;;;;;;;;;22.00;22.00;;;;;;;;5046021;28;8944;-81
2021/05/02 03:12:43;;;;;;;;;25.67;23.33;;;;;;;;5051608;28;8871;-79
2021/05/02 03:15:12;;;;;;;;;34.33;29.33;;;;;;;;5043845;28;9013;-80
2021/05/02 03:17:42;;;;;;;;;26.33;25.00;;;;;;;;5059016;28;9082;-80
2021/05/02 03:20:13;;;;;;;;;31.33;31.33;;;;;;;;5026963;28;11638;-82
2021/05/02 03:22:43;;;;;;;;;32.33;25.67;;;;;;;;5045751;28;8854;-82
2021/05/02 03:25:14;;;;;;;;;31.00;26.00;;;;;;;;5045233;28;8971;-82
2021/05/02 03:27:47;;;;;;;;;28.67;28.67;;;;;;;;5045231;28;8859;-83
2021/05/02 03:30:16;;;;;;;;;25.67;23.33;;;;;;;;5011163;28;8886;-82
2021/05/02 03:32:48;;;;;;;;;28.33;21.67;;;;;;;;5044200;28;11576;-81
2021/05/02 03:35:18;;;;;;;;;26.00;26.00;;;;;;;;5045829;28;12328;-78
2021/05/02 03:37:50;;;;;;;;;27.33;22.00;;;;;;;;5047239;28;11563;-80
2021/05/02 03:40:17;;;;;;;;;24.67;24.67;;;;;;;;5047740;28;11547;-79
2021/05/02 03:42:46;;;;;;;;;27.33;21.33;;;;;;;;5045065;28;11564;-82
2021/05/02 03:45:13;;;;;;;;;25.67;24.33;;;;;;;;5058524;28;11546;-80
2021/05/02 03:47:40;;;;;;;;;29.33;24.67;;;;;;;;5026461;28;8874;-79
2021/05/02 03:50:08;;;;;;;;;37.00;33.00;;;;;;;;5043806;28;11548;-81
2021/05/02 03:52:35;;;;;;;;;25.00;22.67;;;;;;;;5049125;28;11580;-80
2021/05/02 03:55:03;;;;;;;;;26.67;25.67;;;;;;;;5043916;28;11554;-80
2021/05/02 03:57:30;;;;;;;;;26.67;24.33;;;;;;;;5043450;28;8907;-80
2021/05/02 03:59:57;;;;;;;;;31.00;31.00;;;;;;;;5044051;28;8878;-80
2021/05/02 04:02:24;;;;;;;;;29.00;27.00;;;;;;;;5041937;28;9416;-79
2021/05/02 04:04:50;;;;;;;;;32.00;29.00;;;;;;;;5051874;28;11538;-79
2021/05/02 04:07:17;;;;;;;;;35.33;33.33;;;;;;;;5044116;28;11562;-78
2021/05/02 04:09:46;;;;;;;;;35.67;33.00;;;;;;;;5029363;28;11552;-77
2021/05/02 04:12:14;;;;;;;;;26.33;23.33;;;;;;;;5025387;28;8871;-79
2021/05/02 04:14:41;;;;;;;;;32.00;28.00;;;;;;;;5042787;28;11655;-78
2021/05/02 04:17:09;;;;;;;;;32.00;27.00;;;;;;;;5041996;28;12297;-80
2021/05/02 04:19:38;;;;;;;;;28.00;24.67;;;;;;;;5046247;28;11608;-80
2021/05/02 04:22:05;;;;;;;;;23.33;21.00;;;;;;;;5055420;28;11551;-80
2021/05/02 04:24:32;;;;;;;;;28.00;28.00;;;;;;;;5025890;28;11532;-79
2021/05/02 04:27:01;;;;;;;;;27.00;27.00;;;;;;;;5045702;28;11552;-79
2021/05/02 04:29:30;;;;;;;;;25.33;25.33;;;;;;;;5056935;28;11667;-80
2021/05/02 04:31:57;;;;;;;;;25.67;25.67;;;;;;;;5046177;28;11500;-80
2021/05/02 04:34:24;;;;;;;;;19.00;19.00;;;;;;;;5042274;28;11652;-80
2021/05/02 04:36:52;;;;;;;;;25.67;22.67;;;;;;;;5043335;28;11592;-81
2021/05/02 04:39:19;;;;;;;;;28.00;25.00;;;;;;;;5042838;28;11537;-81
2021/05/02 04:41:46;;;;;;;;;26.33;23.00;;;;;;;;5042820;28;11982;-80
2021/05/02 04:44:14;;;;;;;;;30.00;25.00;;;;;;;;5043076;28;11648;-79
2021/05/02 04:46:42;;;;;;;;;26.00;25.00;;;;;;;;5042970;28;12537;-80
2021/05/02 04:49:09;;;;;;;;;29.33;27.33;;;;;;;;5025649;28;11580;-81
2021/05/02 04:51:36;;;;;;;;;32.00;30.33;;;;;;;;5024455;28;11568;-81
2021/05/02 04:54:04;;;;;;;;;28.00;27.00;;;;;;;;5043624;28;8897;-81
2021/05/02 04:56:31;;;;;;;;;32.00;25.00;;;;;;;;5041520;28;11564;-81
2021/05/02 04:58:58;;;;;;;;;31.67;27.67;;;;;;;;5043823;28;11564;-80
2021/05/02 05:01:26;;;;;;;;;24.67;23.33;;;;;;;;5042689;28;11500;-81
2021/05/02 05:03:55;;;;;;;;;43.33;33.67;;;;;;;;5046513;28;11537;-80
2021/05/02 05:06:23;;;;;;;;;21.67;21.67;;;;;;;;5041610;28;8890;-79
2021/05/02 05:08:50;;;;;;;;;28.67;28.00;;;;;;;;5041051;28;8870;-79
2021/05/02 05:11:18;;;;;;;;;30.00;30.00;;;;;;;;5041866;28;8862;-82
2021/05/02 05:13:45;;;;;;;;;32.33;25.67;;;;;;;;5029800;28;8947;-78
2021/05/02 05:16:12;;;;;;;;;33.67;33.00;;;;;;;;5031300;28;8880;-78
2021/05/02 05:18:40;;;;;;;;;31.33;31.33;;;;;;;;5053006;28;8850;-79
2021/05/02 05:21:07;;;;;;;;;21.67;21.67;;;;;;;;5040686;28;8924;-78
2021/05/02 05:23:36;;;;;;;;;32.33;32.33;;;;;;;;5045076;28;8891;-79
2021/05/02 05:26:03;;;;;;;;;40.00;39.00;;;;;;;;5039176;28;8863;-74
2021/05/02 05:28:30;;;;;;;;;39.67;34.33;;;;;;;;5041654;28;8872;-71
2021/05/02 05:30:58;;;;;;;;;25.00;23.00;;;;;;;;5024003;28;8845;-72
2021/05/02 05:33:29;;;;;;;;;40.00;38.33;;;;;;;;5030428;28;8870;-73
2021/05/02 05:35:58;;;;;;;;;32.00;32.00;;;;;;;;5041733;28;8924;-73
2021/05/02 05:38:25;;;;;;;;;32.67;32.67;;;;;;;;5032359;28;8856;-72
2021/05/02 05:40:52;;;;;;;;;33.00;28.67;;;;;;;;5022502;28;11579;-73
2021/05/02 05:43:19;;;;;;;;;27.33;27.33;;;;;;;;5021594;28;11530;-73
2021/05/02 05:45:47;;;;;;;;;33.67;29.67;;;;;;;;5041360;28;11565;-72
2021/05/02 05:48:14;;;;;;;;;37.67;34.67;;;;;;;;5039881;28;11567;-73
2021/05/02 05:50:45;;;;;;;;;37.00;34.00;;;;;;;;5042656;28;11673;-73
2021/05/02 05:53:13;;;;;;;;;44.67;36.33;;;;;;;;5045559;28;11571;-73
2021/05/02 05:55:40;;;;;;;;;37.33;32.67;;;;;;;;5040646;28;11597;-74
2021/05/02 05:58:07;;;;;;;;;33.33;26.00;;;;;;;;5046010;28;11662;-73
2021/05/02 06:00:35;;;;;;;;;38.25;34.00;;;;;;;;5023165;28;11560;-74
2021/05/02 06:03:02;;;;;;;;;37.75;36.00;;;;;;;;5051488;28;11561;-74
2021/05/02 06:05:29;;;;;;;;;34.00;32.00;;;;;;;;5040798;28;12524;-73
2021/05/02 06:07:56;;;;;;;;;32.50;30.75;;;;;;;;5047597;28;11630;-71
2021/05/02 06:10:27;;;;;;;;;35.00;29.25;;;;;;;;5044425;28;11668;-75
2021/05/02 06:12:55;;;;;;;;;36.25;36.00;;;;;;;;5054837;28;11690;-74
2021/05/02 06:15:22;;;;;;;;;38.33;36.33;;;;;;;;5041340;28;11543;-76
2021/05/02 06:17:50;;;;;;;;;47.25;43.00;;;;;;;;5040357;28;11596;-77
2021/05/02 06:20:17;;;;;;;;;41.00;39.67;;;;;;;;5040820;28;12576;-77
2021/05/02 06:22:44;;;;;;;;;43.00;38.25;;;;;;;;5038952;28;11581;-75
2021/05/02 06:25:12;;;;;;;;;39.00;33.75;;;;;;;;5049264;28;11582;-75
2021/05/02 06:27:41;;;;;;;;;40.75;36.50;;;;;;;;5028721;28;11569;-76
2021/05/02 06:30:09;;;;;;;;;36.00;34.75;;;;;;;;5052286;28;11556;-76
2021/05/02 06:32:37;;;;;;;;;45.25;40.00;;;;;;;;5040512;28;11555;-76
2021/05/02 06:35:06;;;;;;;;;31.25;30.75;;;;;;;;5045548;28;11632;-76
2021/05/02 06:37:33;;;;;;;;;41.00;34.75;;;;;;;;5040805;28;13589;-76
2021/05/02 06:40:01;;;;;;;;;33.75;33.75;;;;;;;;5027071;28;11783;-77
2021/05/02 06:42:28;;;;;;;;;42.25;39.75;;;;;;;;5028275;28;12283;-79
2021/05/02 06:44:56;;;;;;;;;40.50;39.25;;;;;;;;5024732;28;11718;-78
2021/05/02 06:47:22;;;;;;;;;45.25;41.75;;;;;;;;5055426;28;11715;-76
2021/05/02 06:49:49;;;;;;;;;45.75;41.00;;;;;;;;5042867;28;11581;-76
2021/05/02 06:52:17;;;;;;;;;40.75;35.50;;;;;;;;5046673;28;11545;-76
2021/05/02 06:54:44;;;;;;;;;44.75;40.25;;;;;;;;5027301;28;11699;-75
2021/05/02 06:57:11;;;;;;;;;52.50;43.00;;;;;;;;5050200;28;11756;-76
2021/05/02 06:59:39;;;;;;;;;46.50;42.00;;;;;;;;5045402;28;12442;-76
2021/05/02 07:02:08;;;;;;;;;38.75;38.75;;;;;;;;5048335;28;12427;-75
2021/05/02 07:04:35;;;;;;;;;47.00;42.00;;;;;;;;5048372;28;11608;-75
2021/05/02 07:07:04;;;;;;;;;51.25;39.50;;;;;;;;5057026;28;11675;-77
2021/05/02 07:09:31;;;;;;;;;48.00;40.75;;;;;;;;5039412;28;11554;-72
2021/05/02 07:11:58;;;;;;;;;38.00;33.50;;;;;;;;5063145;28;11663;-72
2021/05/02 07:14:24;;;;;;;;;54.75;44.75;;;;;;;;5052971;28;11574;-67
2021/05/02 07:16:51;;;;;;;;;47.50;38.00;;;;;;;;5052195;28;11655;-73
2021/05/02 07:19:21;;;;;;;;;51.00;43.50;;;;;;;;5058073;28;11568;-70
2021/05/02 07:21:48;;;;;;;;;43.75;39.75;;;;;;;;5046737;28;11690;-73
2021/05/02 07:24:19;;;;;;;;;53.00;41.50;;;;;;;;5056784;28;11586;-72
2021/05/02 07:26:46;;;;;;;;;43.50;39.00;;;;;;;;5061271;28;11555;-71
2021/05/02 07:29:13;;;;;;;;;41.75;36.00;;;;;;;;5062731;28;11541;-73
2021/05/02 07:31:39;;;;;;;;;51.25;40.75;;;;;;;;5059439;28;11528;-73
2021/05/02 07:34:07;;;;;;;;;41.25;37.75;;;;;;;;5024127;28;11546;-73
2021/05/02 07:36:35;;;;;;;;;38.50;37.75;;;;;;;;5059984;28;11581;-73
2021/05/02 07:39:04;;;;;;;;;43.25;38.50;;;;;;;;5055357;28;11612;-72
2021/05/02 07:41:31;;;;;;;;;47.00;39.00;;;;;;;;5063643;28;11571;-73
2021/05/02 07:43:58;;;;;;;;;37.50;34.50;;;;;;;;5063023;28;12346;-73
2021/05/02 07:46:25;;;;;;;;;40.00;34.25;;;;;;;;5059664;28;11564;-72
2021/05/02 07:48:52;;;;;;;;;33.75;32.25;;;;;;;;5063104;28;11693;-74
2021/05/02 07:51:19;;;;;;;;;27.00;23.50;;;;;;;;5052804;28;11671;-72
2021/05/02 07:53:48;;;;;;;;;24.50;22.75;;;;;;;;5062459;28;12337;-73
2021/05/02 07:56:15;;;;;;;;;20.75;16.75;;;;;;;;5054486;28;11546;-72
2021/05/02 07:58:42;;;;;;;;;22.00;18.25;;;;;;;;5062684;28;11493;-72
2021/05/02 08:01:08;;;;;;;;;24.00;21.00;;;;;;;;5059885;28;11473;-72
2021/05/02 08:03:35;;;;;;;;;22.25;22.25;;;;;;;;5062043;28;11628;-71
2021/05/02 08:06:02;;;;;;;;;21.50;19.50;;;;;;;;5064180;28;11485;-73
2021/05/02 08:08:29;;;;;;;;;22.25;22.00;;;;;;;;5062034;28;11505;-72
2021/05/02 08:10:57;;;;;;;;;24.00;22.75;;;;;;;;5044263;28;11476;-73
2021/05/02 08:13:24;;;;;;;;;27.50;21.50;;;;;;;;5055898;28;11613;-72
2021/05/02 08:15:51;;;;;;;;;23.00;23.00;;;;;;;;5058792;28;11530;-71
2021/05/02 08:18:18;;;;;;;;;27.00;23.25;;;;;;;;5062680;28;11641;-71
2021/05/02 08:20:45;;;;;;;;;22.25;21.75;;;;;;;;5044530;28;11527;-72
2021/05/02 08:23:12;;;;;;;;;16.75;15.75;;;;;;;;5059449;28;11347;-72
2021/05/02 08:25:39;;;;;;;;;21.00;21.00;;;;;;;;5058871;28;11263;-71
2021/05/02 08:28:08;;;;;;;;;23.25;20.50;;;;;;;;5058792;28;11053;-73
2021/05/02 08:30:35;;;;;;;;;19.00;17.75;;;;;;;;5074967;28;11723;-73
2021/05/02 08:33:02;;;;;;;;;22.50;22.50;;;;;;;;5061477;28;11072;-73
2021/05/02 08:35:29;;;;;;;;;21.75;21.00;;;;;;;;5061184;28;10848;-73
2021/05/02 08:37:56;;;;;;;;;22.00;22.00;;;;;;;;5058402;28;10998;-72
2021/05/02 08:40:23;;;;;;;;;20.25;20.25;;;;;;;;5062251;28;10986;-74
2021/05/02 08:42:50;;;;;;;;;24.25;23.00;;;;;;;;5061936;28;11044;-73
2021/05/02 08:45:18;;;;;;;;;18.25;18.25;;;;;;;;5059231;28;10905;-74
2021/05/02 08:47:49;;;;;;;;;25.25;23.25;;;;;;;;5056903;28;10800;-71
2021/05/02 08:50:16;;;;;;;;;26.25;23.00;;;;;;;;5057289;28;11049;-74
2021/05/02 08:52:43;;;;;;;;;22.50;22.50;;;;;;;;5060435;28;11047;-69
2021/05/02 08:55:10;;;;;;;;;21.25;20.50;;;;;;;;5057930;28;11882;-72
2021/05/02 08:57:38;;;;;;;;;14.00;12.50;;;;;;;;5061109;28;11065;-73
2021/05/02 09:00:09;;;;;;;;;17.75;15.75;;;;;;;;5059736;28;12111;-72
2021/05/02 09:02:37;;;;;;;;;23.75;20.00;;;;;;;;5059747;28;11207;-73
2021/05/02 09:05:06;;;;;;;;;16.75;16.75;;;;;;;;5056875;28;11187;-72
2021/05/02 09:07:42;;;;;;;;;20.25;20.25;;;;;;;;5060778;28;11491;-73
2021/05/02 09:10:11;;;;;;;;;12.00;12.00;;;;;;;;5061652;28;11491;-71
2021/05/02 09:12:39;;;;;;;;;18.75;18.75;;;;;;;;5057775;28;11189;-72
2021/05/02 09:15:09;;;;;;;;;22.00;22.00;;;;;;;;5038722;28;12540;-72
2021/05/02 09:17:51;;;;;;;;;19.00;18.25;;;;;;;;5056659;28;10989;-72
2021/05/02 09:20:43;;;;;;;;;22.50;21.00;;;;;;;;5050474;28;10836;-74
2021/05/02 09:23:11;;;;;;;;;20.00;19.50;;;;;;;;5042695;28;10718;-74
2021/05/02 09:25:50;;;;;;;;;25.25;18.50;;;;;;;;5049334;28;10705;-74
2021/05/02 09:28:18;;;;;;;;;16.50;16.25;;;;;;;;5040909;28;10526;-73
2021/05/02 09:30:45;;;;;;;;;19.00;19.00;;;;;;;;5031962;28;10349;-74
2021/05/02 09:33:26;;;;;;;;;20.75;14.00;;;;;;;;5053142;28;10364;-74
2021/05/02 09:35:53;;;;;;;;;16.25;15.00;;;;;;;;5043721;28;10315;-72
2021/05/02 09:38:20;;;;;;;;;15.75;14.75;;;;;;;;5044352;28;10359;-73
2021/05/02 09:40:49;;;;;;;;;14.50;12.75;;;;;;;;5042680;28;10443;-74
2021/05/02 09:43:35;;;;;;;;;21.75;16.50;;;;;;;;5040704;28;10276;-74
2021/05/02 09:46:27;;;;;;;;;15.75;14.50;;;;;;;;5042537;28;10376;-74
2021/05/02 09:49:11;;;;;;;;;11.25;11.25;;;;;;;;5033524;28;10255;-75
2021/05/02 09:51:40;;;;;;;;;19.25;13.75;;;;;;;;5045825;28;9980;-72
2021/05/02 09:54:12;;;;;;;;;13.25;13.25;;;;;;;;5043129;28;9941;-75
2021/05/02 09:56:41;;;;;;;;;14.00;10.00;;;;;;;;5042746;28;11150;-76
2021/05/02 09:59:21;;;;;;;;;10.00;10.00;;;;;;;;5032470;28;9883;-75
2021/05/02 10:02:24;;;;;;;;;9.75;9.50;;;;;;;;5039956;28;9822;-74
2021/05/02 10:04:56;;;;;;;;;7.25;7.00;;;;;;;;5039847;28;9826;-75
2021/05/02 10:07:23;;;;;;;;;10.50;10.50;;;;;;;;5023946;28;10365;-74
2021/05/02 10:09:51;;;;;;;;;10.00;9.50;;;;;;;;5043571;28;9619;-74
2021/05/02 10:12:18;;;;;;;;;9.75;9.75;;;;;;;;5043874;28;9549;-74
2021/05/02 10:14:47;;;;;;;;;10.00;10.00;;;;;;;;5042138;28;9735;-74
2021/05/02 10:17:14;;;;;;;;;8.75;7.50;;;;;;;;5044211;28;9770;-74
2021/05/02 10:19:42;;;;;;;;;15.75;12.00;;;;;;;;5047427;28;9768;-74
2021/05/02 10:22:11;;;;;;;;;9.00;9.00;;;;;;;;5055480;28;9836;-75
2021/05/02 10:24:38;;;;;;;;;12.00;11.00;;;;;;;;5051596;28;9779;-75
2021/05/02 10:27:10;;;;;;;;;10.25;10.25;;;;;;;;5051548;28;9711;-75
2021/05/02 10:29:39;;;;;;;;;11.25;8.00;;;;;;;;5049922;28;9630;-75
2021/05/02 10:32:09;;;;;;;;;20.25;20.25;;;;;;;;5046259;28;9578;-71
2021/05/02 10:34:38;;;;;;;;;86.75;81.00;;;;;;;;5046245;28;12301;-75
2021/05/02 10:37:29;;;;;;;;;229.75;216.00;;;;;;;;5050119;28;11699;-75
2021/05/02 10:39:58;;;;;;;;;521.50;485.50;;;;;;;;5039332;28;10231;-77
2021/05/02 10:42:50;;;;;;;;;11.50;10.00;;;;;;;;5047947;28;8887;-76
2021/05/02 10:45:43;;;;;;;;;116.40;105.20;;;;;;;;5049108;28;9650;-77
2021/05/02 10:48:30;;;;;;;;;89.50;83.75;;;;;;;;5042552;28;11651;-78
2021/05/02 10:50:58;;;;;;;;;5.25;5.25;;;;;;;;5044507;28;8846;-76
2021/05/02 10:53:27;;;;;;;;;8.00;8.00;;;;;;;;5045791;28;8854;-76
2021/05/02 10:55:56;;;;;;;;;6.00;6.00;;;;;;;;5044431;28;8866;-76
2021/05/02 10:58:24;;;;;;;;;6.25;6.25;;;;;;;;5045003;28;8904;-76
2021/05/02 11:00:55;;;;;;;;;4.75;4.75;;;;;;;;5043854;28;8799;-75
2021/05/02 11:03:55;;;;;;;;;5.50;5.50;;;;;;;;5044344;28;8846;-76
2021/05/02 11:06:54;;;;;;;;;8.25;7.00;;;;;;;;5043774;28;8904;-74
2021/05/02 11:09:50;;;;;;;;;6.75;6.75;;;;;;;;5052409;28;8901;-75
2021/05/02 11:12:33;;;;;;;;;6.00;5.75;;;;;;;;5048794;28;8989;-76
2021/05/02 11:15:01;;;;;;;;;6.00;6.00;;;;;;;;5047781;28;8929;-74
2021/05/02 11:17:30;;;;;;;;;7.50;7.50;;;;;;;;5044206;28;8850;-77
2021/05/02 11:19:58;;;;;;;;;10.00;8.50;;;;;;;;5044774;28;8921;-76
2021/05/02 11:22:26;;;;;;;;;7.50;7.00;;;;;;;;5044810;28;8866;-76
2021/05/02 11:24:56;;;;;;;;;7.00;7.00;;;;;;;;5048368;28;8834;-75
2021/05/02 11:27:59;;;;;;;;;7.50;6.75;;;;;;;;5064705;28;8893;-74
2021/05/02 11:30:27;;;;;;;;;8.75;6.25;;;;;;;;5064901;28;8793;-75
2021/05/02 11:32:56;;;;;;;;;6.25;6.00;;;;;;;;5054085;28;8862;-76
2021/05/02 11:35:56;;;;;;;;;5.00;5.00;;;;;;;;5034885;28;8884;-75
2021/05/02 11:38:45;;;;;;;;;5.00;5.00;;;;;;;;5054962;28;8844;-73
2021/05/02 11:41:13;;;;;;;;;4.00;4.00;;;;;;;;5052359;28;8870;-72
2021/05/02 11:43:42;;;;;;;;;7.25;7.25;;;;;;;;5044950;28;8935;-75
2021/05/02 11:46:18;;;;;;;;;6.25;6.25;;;;;;;;5043479;28;8865;-80
2021/05/02 11:48:48;;;;;;;;;6.00;6.00;;;;;;;;5044367;28;8873;-75
2021/05/02 11:51:19;;;;;;;;;7.50;6.00;;;;;;;;5053014;28;8911;-75
2021/05/02 11:53:48;;;;;;;;;7.00;7.00;;;;;;;;5043475;28;8981;-75
2021/05/02 11:56:21;;;;;;;;;6.00;6.00;;;;;;;;5043886;28;8981;-73
2021/05/02 11:58:48;;;;;;;;;6.25;6.25;;;;;;;;5032686;28;8943;-75
2021/05/02 12:01:18;;;;;;;;;6.25;6.25;;;;;;;;5044369;28;8815;-75
2021/05/02 12:03:46;;;;;;;;;5.25;5.25;;;;;;;;5046120;28;8879;-75
2021/05/02 12:06:24;;;;;;;;;5.25;5.25;;;;;;;;5043479;28;8881;-75
2021/05/02 12:08:52;;;;;;;;;5.00;5.00;;;;;;;;5058044;28;8867;-73
2021/05/02 12:11:20;;;;;;;;;6.00;4.33;;;;;;;;5033326;28;8867;-74
2021/05/02 12:13:50;;;;;;;;;7.00;7.00;;;;;;;;5047960;28;9685;-74
2021/05/02 12:16:18;;;;;;;;;7.50;7.50;;;;;;;;5044027;28;8883;-72
2021/05/02 12:18:51;;;;;;;;;7.00;7.00;;;;;;;;5049564;28;8848;-76
2021/05/02 12:21:22;;;;;;;;;8.75;7.00;;;;;;;;5046410;28;8871;-76
2021/05/02 12:23:50;;;;;;;;;8.00;6.00;;;;;;;;5039012;28;8858;-74
2021/05/02 12:26:18;;;;;;;;;7.25;6.25;;;;;;;;5044743;28;8889;-74
2021/05/02 12:28:49;;;;;;;;;6.00;6.00;;;;;;;;5048774;28;8856;-76
2021/05/02 12:31:16;;;;;;;;;6.00;6.00;;;;;;;;5046727;28;8785;-73
2021/05/02 12:33:44;;;;;;;;;4.50;4.50;;;;;;;;5040088;28;8862;-75
2021/05/02 12:36:13;;;;;;;;;8.00;7.25;;;;;;;;5032751;28;8860;-73
2021/05/02 12:38:41;;;;;;;;;6.75;6.75;;;;;;;;5049357;28;8830;-74
2021/05/02 12:41:18;;;;;;;;;6.50;6.00;;;;;;;;5042528;28;8932;-73
2021/05/02 12:43:48;;;;;;;;;6.25;6.25;;;;;;;;5043295;28;8928;-75
2021/05/02 12:46:39;;;;;;;;;7.00;7.00;;;;;;;;5042545;28;8877;-73
2021/05/02 12:49:15;;;;;;;;;7.25;6.75;;;;;;;;5036039;28;8864;-74
2021/05/02 12:51:44;;;;;;;;;7.25;7.00;;;;;;;;5036893;28;8889;-74
2021/05/02 12:54:12;;;;;;;;;7.75;7.75;;;;;;;;5044054;28;8875;-74
2021/05/02 12:56:40;;;;;;;;;9.25;9.25;;;;;;;;5042712;28;8869;-71
2021/05/02 12:59:45;;;;;;;;;9.25;9.25;;;;;;;;5042785;28;8867;-73
2021/05/02 13:02:15;;;;;;;;;4.25;4.25;;;;;;;;4975863;28;8826;-71
2021/05/02 13:04:46;;;;;;;;;7.50;7.50;;;;;;;;4980645;28;9989;-75
2021/05/02 13:07:13;;;;;;;;;8.50;7.00;;;;;;;;5011361;28;8867;-74
2021/05/02 13:09:42;;;;;;;;;8.00;8.00;;;;;;;;5043717;28;8874;-74
2021/05/02 13:12:09;;;;;;;;;8.00;8.00;;;;;;;;5043221;28;8858;-74
2021/05/02 13:14:36;;;;;;;;;6.00;6.00;;;;;;;;5042160;28;8892;-74
2021/05/02 13:17:11;;;;;;;;;8.00;8.00;;;;;;;;5041010;28;8894;-75
2021/05/02 13:19:41;;;;;;;;;8.75;7.50;;;;;;;;5048242;28;8854;-74
2021/05/02 13:22:16;;;;;;;;;7.00;7.00;;;;;;;;5043085;28;8839;-75
2021/05/02 13:24:59;;;;;;;;;6.50;6.50;;;;;;;;5038505;28;8884;-74
2021/05/02 13:27:38;;;;;;;;;8.25;7.75;;;;;;;;5042070;28;8858;-71
2021/05/02 13:30:06;;;;;;;;;10.75;9.25;;;;;;;;5046202;28;9548;-74
2021/05/02 13:32:58;;;;;;;;;6.50;6.50;;;;;;;;5041975;28;8850;-71
2021/05/02 13:35:27;;;;;;;;;8.00;8.00;;;;;;;;5043067;28;8846;-74
2021/05/02 13:37:54;;;;;;;;;5.75;5.75;;;;;;;;5042446;28;8931;-72
2021/05/02 13:40:21;;;;;;;;;6.25;6.25;;;;;;;;5042730;28;8956;-73
2021/05/02 13:42:48;;;;;;;;;5.50;5.50;;;;;;;;5043536;28;8904;-73
2021/05/02 13:45:16;;;;;;;;;7.50;7.00;;;;;;;;5030573;28;8873;-73
2021/05/02 13:47:43;;;;;;;;;5.75;5.75;;;;;;;;5040873;28;8863;-73
2021/05/02 13:50:12;;;;;;;;;8.00;8.00;;;;;;;;5044653;28;8932;-74
2021/05/02 13:52:39;;;;;;;;;6.00;6.00;;;;;;;;5047138;28;8888;-72
2021/05/02 13:55:08;;;;;;;;;9.00;7.50;;;;;;;;5040955;28;8855;-74
2021/05/02 13:57:35;;;;;;;;;10.00;8.25;;;;;;;;5040584;28;8947;-74
2021/05/02 14:00:03;;;;;;;;;6.75;6.75;;;;;;;;5042527;28;8876;-76
2021/05/02 14:02:30;;;;;;;;;10.25;9.25;;;;;;;;5042052;28;8827;-76
2021/05/02 14:04:57;;;;;;;;;9.00;9.00;;;;;;;;5046696;28;9012;-76
2021/05/02 14:07:25;;;;;;;;;8.00;8.00;;;;;;;;5042032;28;8858;-78
2021/05/02 14:09:52;;;;;;;;;8.25;8.25;;;;;;;;5026419;28;8935;-80
2021/05/02 14:12:19;;;;;;;;;7.00;7.00;;;;;;;;5042412;28;8871;-78
2021/05/02 14:14:45;;;;;;;;;7.75;7.75;;;;;;;;5046035;28;8869;-75
2021/05/02 14:17:12;;;;;;;;;7.00;7.00;;;;;;;;5042764;28;8989;-74
2021/05/02 14:19:39;;;;;;;;;8.25;8.25;;;;;;;;5041401;28;8875;-79
2021/05/02 14:22:06;;;;;;;;;8.00;8.00;;;;;;;;5039956;28;8839;-76
2021/05/02 14:24:33;;;;;;;;;8.00;8.00;;;;;;;;5040935;28;8870;-76
2021/05/02 14:27:00;;;;;;;;;7.00;7.00;;;;;;;;5048307;28;8852;-81
2021/05/02 14:29:27;;;;;;;;;9.25;7.75;;;;;;;;5032016;28;8863;-77
2021/05/02 14:31:55;;;;;;;;;8.50;8.50;;;;;;;;5029346;28;8951;-78
2021/05/02 14:34:22;;;;;;;;;7.75;7.75;;;;;;;;5047871;28;8882;-77
2021/05/02 14:36:56;;;;;;;;;6.25;6.00;;;;;;;;5043573;28;8866;-80
2021/05/02 14:39:23;;;;;;;;;8.75;8.75;;;;;;;;5054781;28;8858;-79
2021/05/02 14:41:51;;;;;;;;;8.25;8.25;;;;;;;;5056582;28;9680;-78
2021/05/02 14:44:18;;;;;;;;;7.00;7.00;;;;;;;;5053406;28;8959;-78